Magestic — J8QP6 — position and weather

sailwx.info

Track history (hours):
 
Tides and Currents Weather Stations Pressure Air Temp Water Temp Dewpoint Dewpoint Depression Visibility Wind Speed Wind Dir Waves Ship Positions

Magestic

Last reported at 2017-Aug-31 17:42 UTC. Time now 2017-Sep-23 23:48 UTC.
Position N 25°34' W 079°43'.
Warning: this ship's position is 23 days out of date.

; draft 3.4 m.

Type: Cargo ship. MMSI: 377901062.

Date/timePositionNaut miles runAvg speedWind from/ knotsBaromVisibWave heightAir tempDewpointWater temp
2017-Aug-31 17:42N 25°34' W 079°43'1 6.5
2017-Aug-31 17:29N 25°35' W 079°45'3 6.2
2017-Aug-31 16:57N 25°38' W 079°47'3 5.7
2017-Aug-31 16:30N 25°39' W 079°49'3 5.4
2017-Aug-31 16:00N 25°42' W 079°51'3 5.8
2017-Aug-31 15:30N 25°44' W 079°53'4 8.3
2017-Aug-31 15:00N 25°44' W 079°58'4 8.3
2017-Aug-31 14:30N 25°45' W 080°03'4 7.4
2017-Aug-31 14:00N 25°45' W 080°07'4 7.6
2017-Aug-31 13:30N 25°46' W 080°11'1 2.7
2017-Aug-31 13:00N 25°47' W 080°12'2 2.9
2017-Aug-31 12:29N 25°47' W 080°14'0 0.0
2017-Aug-31 11:59N 25°47' W 080°14'0 0.0
2017-Aug-31 11:26N 25°47' W 080°14'0 0.0
2017-Aug-31 10:59N 25°47' W 080°14'0 0.0
2017-Aug-31 10:29N 25°47' W 080°14'0 0.0
2017-Aug-31 09:59N 25°47' W 080°14'0 0.0
2017-Aug-31 09:29N 25°47' W 080°14'0 0.0
2017-Aug-31 08:59N 25°47' W 080°14'0 0.0
2017-Aug-31 08:29N 25°47' W 080°14'0 0.0
2017-Aug-31 07:59N 25°47' W 080°14'0 0.0
2017-Aug-31 07:29N 25°47' W 080°14'0 0.0
2017-Aug-31 06:59N 25°47' W 080°14'0 0.0
2017-Aug-31 06:29N 25°47' W 080°14'0 0.0
2017-Aug-31 05:59N 25°47' W 080°14'0 0.0
2017-Aug-31 05:29N 25°47' W 080°14'0 0.0
2017-Aug-31 04:59N 25°47' W 080°14'0 0.0
2017-Aug-31 04:26N 25°47' W 080°14'0 0.0
2017-Aug-31 03:59N 25°47' W 080°14'0 0.0
2017-Aug-31 03:29N 25°47' W 080°14'0 0.0
2017-Aug-31 02:58N 25°47' W 080°14'0 0.0
2017-Aug-31 02:28N 25°47' W 080°14'0 0.0
2017-Aug-31 01:58N 25°47' W 080°14'0 0.0
2017-Aug-31 01:28N 25°47' W 080°14'0 0.0
2017-Aug-31 00:58N 25°47' W 080°14'0 0.0
2017-Aug-31 00:28N 25°47' W 080°14'0 0.0
2017-Aug-30 23:58N 25°47' W 080°14'0 0.0
2017-Aug-30 23:28N 25°47' W 080°14'0 0.0
2017-Aug-30 22:58N 25°47' W 080°14'0 0.0
2017-Aug-30 22:25N 25°47' W 080°14'0 0.0
2017-Aug-30 21:58N 25°47' W 080°14'0 0.0
2017-Aug-30 21:28N 25°47' W 080°14'0 0.0
2017-Aug-30 20:55N 25°47' W 080°14'0 0.0
2017-Aug-30 20:28N 25°47' W 080°14'0 0.0
2017-Aug-30 19:55N 25°47' W 080°14'0 0.0
2017-Aug-30 19:28N 25°47' W 080°14'0 0.0
2017-Aug-30 18:58N 25°47' W 080°14'0 0.0
2017-Aug-30 18:25N 25°47' W 080°14'0 0.0
2017-Aug-30 17:55N 25°47' W 080°14'0 0.0
2017-Aug-30 17:28N 25°47' W 080°14'0 0.0
2017-Aug-30 16:55N 25°47' W 080°14'0 0.0
2017-Aug-30 16:28N 25°47' W 080°14'0 0.0
2017-Aug-30 15:52N 25°47' W 080°14'0 0.0
2017-Aug-30 15:28N 25°47' W 080°14'0 0.0
2017-Aug-30 14:55N 25°47' W 080°14'0 0.0
2017-Aug-30 14:28N 25°47' W 080°14'0 0.0
2017-Aug-30 13:58N 25°47' W 080°14'0 0.0
2017-Aug-30 13:28N 25°47' W 080°14'0 0.0
2017-Aug-30 12:55N 25°47' W 080°14'0 0.0
2017-Aug-30 12:28N 25°47' W 080°14'0 0.0
2017-Aug-30 11:55N 25°47' W 080°14'0 0.0
2017-Aug-30 11:28N 25°47' W 080°14'0 0.0
2017-Aug-30 10:58N 25°47' W 080°14'0 0.0
2017-Aug-30 10:25N 25°47' W 080°14'0 0.0
2017-Aug-30 09:58N 25°47' W 080°14'0 0.0
2017-Aug-30 09:28N 25°47' W 080°14'0 0.0
2017-Aug-30 08:58N 25°47' W 080°14'0 0.0
2017-Aug-30 08:28N 25°47' W 080°14'0 0.0
2017-Aug-30 07:58N 25°47' W 080°14'0 0.0
2017-Aug-30 07:28N 25°47' W 080°14'0 0.0
2017-Aug-30 06:58N 25°47' W 080°14'0 0.0
2017-Aug-30 06:28N 25°47' W 080°14'0 0.0
2017-Aug-30 05:58N 25°47' W 080°14'0 0.0
2017-Aug-30 05:28N 25°47' W 080°14'0 0.0
2017-Aug-30 04:58N 25°47' W 080°14'0 0.0
2017-Aug-30 04:28N 25°47' W 080°14'0 0.0
2017-Aug-30 03:58N 25°47' W 080°14'0 0.0
2017-Aug-30 03:28N 25°47' W 080°14'0 0.0
2017-Aug-30 02:58N 25°47' W 080°14'0 0.0
2017-Aug-30 02:28N 25°47' W 080°14'0 0.0
2017-Aug-30 01:58N 25°47' W 080°14'0 0.0
2017-Aug-30 01:28N 25°47' W 080°14'0 0.0
2017-Aug-30 00:58N 25°47' W 080°14'0 0.0
2017-Aug-30 00:28N 25°47' W 080°14'0 0.0
2017-Aug-29 23:58N 25°47' W 080°14'0 0.0
2017-Aug-29 23:28N 25°47' W 080°14'0 0.0
2017-Aug-29 22:58N 25°47' W 080°14'0 0.0
2017-Aug-29 22:28N 25°47' W 080°14'0 0.0
2017-Aug-29 21:58N 25°47' W 080°14'0 0.0
2017-Aug-29 21:25N 25°47' W 080°14'0 0.0
2017-Aug-29 20:58N 25°47' W 080°14'0 0.0
2017-Aug-29 20:28N 25°47' W 080°14'0 0.0
2017-Aug-29 19:58N 25°47' W 080°14'0 0.0
2017-Aug-29 19:25N 25°47' W 080°14'0 0.0
2017-Aug-29 18:52N 25°47' W 080°14'0 0.0
2017-Aug-29 18:28N 25°47' W 080°14'0 0.0
2017-Aug-29 18:01N 25°47' W 080°14'0 0.0
2017-Aug-29 17:31N 25°47' W 080°14'0 0.0
2017-Aug-29 17:01N 25°47' W 080°14'0 0.0
2017-Aug-29 16:28N 25°47' W 080°14'0 0.0
2017-Aug-29 15:57N 25°47' W 080°14'0 0.0
2017-Aug-29 15:30N 25°47' W 080°14'0 0.0
2017-Aug-29 15:00N 25°47' W 080°14'0 0.0
2017-Aug-29 14:30N 25°47' W 080°14'0 0.0
2017-Aug-29 13:57N 25°47' W 080°14'0 0.0
2017-Aug-29 13:27N 25°47' W 080°14'0 0.0
2017-Aug-29 13:00N 25°47' W 080°14'0 0.0
2017-Aug-29 12:30N 25°47' W 080°14'0 0.0
2017-Aug-29 12:00N 25°47' W 080°14'0 0.0
2017-Aug-29 11:30N 25°47' W 080°14'0 0.0
2017-Aug-29 11:00N 25°47' W 080°14'0 0.0
2017-Aug-29 10:30N 25°47' W 080°14'0 0.0
2017-Aug-29 10:00N 25°47' W 080°14'0 0.0
2017-Aug-29 09:30N 25°47' W 080°14'0 0.0
2017-Aug-29 09:00N 25°47' W 080°14'0 0.0
2017-Aug-29 08:27N 25°47' W 080°14'0 0.0
2017-Aug-29 07:57N 25°47' W 080°14'0 0.0
2017-Aug-29 07:30N 25°47' W 080°14'0 0.0
2017-Aug-29 07:00N 25°47' W 080°14'0 0.0
2017-Aug-29 06:30N 25°47' W 080°14'0 0.0
2017-Aug-29 05:57N 25°47' W 080°14'0 0.0
2017-Aug-29 05:30N 25°47' W 080°14'0 0.0
2017-Aug-29 04:54N 25°47' W 080°14'0 0.0
2017-Aug-29 04:30N 25°47' W 080°14'0 0.0
2017-Aug-29 03:57N 25°47' W 080°14'0 0.0
2017-Aug-29 03:30N 25°47' W 080°14'0 0.0
2017-Aug-29 03:00N 25°47' W 080°14'0 0.0
2017-Aug-29 02:30N 25°47' W 080°14'0 0.0
2017-Aug-29 02:00N 25°47' W 080°14'0 0.0
2017-Aug-29 01:30N 25°47' W 080°14'0 0.0
2017-Aug-29 01:00N 25°47' W 080°14'0 0.0
2017-Aug-29 00:30N 25°47' W 080°14'0 0.0
2017-Aug-29 00:00N 25°47' W 080°14'0 0.0
2017-Aug-28 23:30N 25°47' W 080°14'0 0.0
2017-Aug-28 23:00N 25°47' W 080°14'0 0.0
2017-Aug-28 22:30N 25°47' W 080°14'0 0.0
2017-Aug-28 22:00N 25°47' W 080°14'0 0.0
2017-Aug-28 21:30N 25°47' W 080°14'0 0.0
2017-Aug-28 20:57N 25°47' W 080°14'0 0.0
2017-Aug-28 20:30N 25°47' W 080°14'0 0.0
2017-Aug-28 19:54N 25°47' W 080°14'0 0.0
2017-Aug-28 19:30N 25°47' W 080°14'0 0.0
2017-Aug-28 19:00N 25°47' W 080°14'0 0.0
2017-Aug-28 18:30N 25°47' W 080°14'0 0.0
2017-Aug-28 18:00N 25°47' W 080°14'0 0.0
2017-Aug-28 17:30N 25°47' W 080°14'0 0.0
2017-Aug-28 17:00N 25°47' W 080°14'0 0.0
2017-Aug-28 16:30N 25°47' W 080°14'0 0.0
2017-Aug-28 16:00N 25°47' W 080°14'0 0.0
2017-Aug-28 15:30N 25°47' W 080°14'0 0.0
2017-Aug-28 14:57N 25°47' W 080°14'0 0.0
2017-Aug-28 14:30N 25°47' W 080°14'0 0.0
2017-Aug-28 14:00N 25°47' W 080°14'0 0.0
2017-Aug-28 13:30N 25°47' W 080°14'0 0.0
2017-Aug-28 12:54N 25°47' W 080°14'0 0.0
2017-Aug-28 12:27N 25°47' W 080°14'0 0.0
2017-Aug-28 12:00N 25°47' W 080°14'0 0.0
2017-Aug-28 11:30N 25°47' W 080°14'0 0.0
2017-Aug-28 10:54N 25°47' W 080°14'0 0.0
2017-Aug-28 10:30N 25°47' W 080°14'0 0.0
2017-Aug-28 10:00N 25°47' W 080°14'0 0.0
2017-Aug-28 09:30N 25°47' W 080°14'0 0.0
2017-Aug-28 08:54N 25°47' W 080°14'0 0.0
2017-Aug-28 08:27N 25°47' W 080°14'0 0.0
2017-Aug-28 08:00N 25°47' W 080°14'0 0.0
2017-Aug-28 07:27N 25°47' W 080°14'0 0.0
2017-Aug-28 07:00N 25°47' W 080°14'0 0.0
2017-Aug-28 06:29N 25°47' W 080°14'0 0.0
2017-Aug-28 05:56N 25°47' W 080°14'0 0.0
2017-Aug-28 05:29N 25°47' W 080°14'0 0.0
2017-Aug-28 04:56N 25°47' W 080°14'0 0.0
2017-Aug-28 04:29N 25°47' W 080°14'0 0.0
2017-Aug-28 03:59N 25°47' W 080°14'0 0.0
2017-Aug-28 03:29N 25°47' W 080°14'0 0.0
2017-Aug-28 02:59N 25°47' W 080°14'0 0.0
2017-Aug-28 02:29N 25°47' W 080°14'0 0.0
2017-Aug-28 01:59N 25°47' W 080°14'0 0.0
2017-Aug-28 01:29N 25°47' W 080°14'0 0.0
2017-Aug-28 00:59N 25°47' W 080°14'0 0.0
2017-Aug-28 00:29N 25°47' W 080°14'0 0.0
2017-Aug-27 23:59N 25°47' W 080°14'0 0.0
2017-Aug-27 23:29N 25°47' W 080°14'0 0.0
2017-Aug-27 22:59N 25°47' W 080°14'0 0.0
2017-Aug-27 22:29N 25°47' W 080°14'0 0.0
2017-Aug-27 21:59N 25°47' W 080°14'0 0.0
2017-Aug-27 21:29N 25°47' W 080°14'0 0.0
2017-Aug-27 20:59N 25°47' W 080°14'0 0.0
2017-Aug-27 20:29N 25°47' W 080°14'0 0.0
2017-Aug-27 19:59N 25°47' W 080°14'0 0.0
2017-Aug-27 19:29N 25°47' W 080°14'0 0.0
2017-Aug-27 18:59N 25°47' W 080°14'0 0.0
2017-Aug-27 18:29N 25°47' W 080°14'0 0.0
2017-Aug-27 17:59N 25°47' W 080°14'0 0.0
2017-Aug-27 17:29N 25°47' W 080°14'0 0.0
2017-Aug-27 16:59N 25°47' W 080°14'0 0.0
2017-Aug-27 16:29N 25°47' W 080°14'0 0.0
2017-Aug-27 15:59N 25°47' W 080°14'0 0.0
2017-Aug-27 15:29N 25°47' W 080°14'0 0.0
2017-Aug-27 14:59N 25°47' W 080°14'0 0.0
2017-Aug-27 14:29N 25°47' W 080°14'0 0.0
2017-Aug-27 13:59N 25°47' W 080°14'0 0.0
2017-Aug-27 13:26N 25°47' W 080°14'0 0.0
2017-Aug-27 12:59N 25°47' W 080°14'0 0.0
2017-Aug-27 12:29N 25°47' W 080°14'0 0.0
2017-Aug-27 11:59N 25°47' W 080°14'0 0.0
2017-Aug-27 11:26N 25°47' W 080°14'0 0.0
2017-Aug-27 10:53N 25°47' W 080°14'0 0.0
2017-Aug-27 10:26N 25°47' W 080°14'0 0.0
2017-Aug-27 09:59N 25°47' W 080°14'0 0.0
2017-Aug-27 09:29N 25°47' W 080°14'0 0.0
2017-Aug-27 08:59N 25°47' W 080°14'0 0.0
2017-Aug-27 08:29N 25°47' W 080°14'0 0.0
2017-Aug-27 07:53N 25°47' W 080°14'0 0.0
2017-Aug-27 07:29N 25°47' W 080°14'0 0.0
2017-Aug-27 06:56N 25°47' W 080°14'0 0.0
2017-Aug-27 06:26N 25°47' W 080°14'0 0.0
2017-Aug-27 05:59N 25°47' W 080°14'0 0.0
2017-Aug-27 05:29N 25°47' W 080°14'0 0.0
2017-Aug-27 04:59N 25°47' W 080°14'0 0.0
2017-Aug-27 04:29N 25°47' W 080°14'0 0.0
2017-Aug-27 03:59N 25°47' W 080°14'0 0.0
2017-Aug-27 03:29N 25°47' W 080°14'0 0.0
2017-Aug-27 02:59N 25°47' W 080°14'0 0.0
2017-Aug-27 02:26N 25°47' W 080°14'0 0.0
2017-Aug-27 01:59N 25°47' W 080°14'0 0.0
2017-Aug-27 01:26N 25°47' W 080°14'0 0.0
2017-Aug-27 00:59N 25°47' W 080°14'0 0.0
2017-Aug-27 00:29N 25°47' W 080°14'0 0.0
2017-Aug-26 23:59N 25°47' W 080°14'0 0.0
2017-Aug-26 23:29N 25°47' W 080°14'0 0.0
2017-Aug-26 22:59N 25°47' W 080°14'0 0.0
2017-Aug-26 22:29N 25°47' W 080°14'0 0.0
2017-Aug-26 21:59N 25°47' W 080°14'0 0.0
2017-Aug-26 21:29N 25°47' W 080°14'0 0.0
2017-Aug-26 20:58N 25°47' W 080°14'0 0.0
2017-Aug-26 20:28N 25°47' W 080°14'0 0.0
2017-Aug-26 19:58N 25°47' W 080°14'0 0.0
2017-Aug-26 19:28N 25°47' W 080°14'0 0.0
2017-Aug-26 18:58N 25°47' W 080°14'0 0.0
2017-Aug-26 18:28N 25°47' W 080°14'0 0.0
2017-Aug-26 17:58N 25°47' W 080°14'0 0.0
2017-Aug-26 17:28N 25°47' W 080°14'0 0.0
2017-Aug-26 16:58N 25°47' W 080°14'0 0.0
2017-Aug-26 16:28N 25°47' W 080°14'0 0.0
2017-Aug-26 15:58N 25°47' W 080°14'0 0.0
2017-Aug-26 15:28N 25°47' W 080°14'0 0.0
2017-Aug-26 14:58N 25°47' W 080°14'0 0.0
2017-Aug-26 13:58N 25°47' W 080°14'0 0.0
2017-Aug-26 13:28N 25°47' W 080°14'0 0.0
2017-Aug-26 12:58N 25°47' W 080°14'0 0.0
2017-Aug-26 12:28N 25°47' W 080°14'0 0.0
2017-Aug-26 11:58N 25°47' W 080°14'0 0.0
2017-Aug-26 11:28N 25°47' W 080°14'0 0.0
2017-Aug-26 10:58N 25°47' W 080°14'0 0.0
2017-Aug-26 10:28N 25°47' W 080°14'0 0.0
2017-Aug-26 09:55N 25°47' W 080°14'0 0.0
2017-Aug-26 09:28N 25°47' W 080°14'0 0.0
2017-Aug-26 08:58N 25°47' W 080°14'0 0.0
2017-Aug-26 08:28N 25°47' W 080°14'0 0.0
2017-Aug-26 07:58N 25°47' W 080°14'0 0.0
2017-Aug-26 07:22N 25°47' W 080°14'0 0.0
2017-Aug-26 06:58N 25°47' W 080°14'0 0.0
2017-Aug-26 06:28N 25°47' W 080°14'0 0.0
2017-Aug-26 05:58N 25°47' W 080°14'0 0.0
2017-Aug-26 05:28N 25°47' W 080°14'0 0.0
2017-Aug-26 04:55N 25°47' W 080°14'0 0.0
2017-Aug-26 04:28N 25°47' W 080°14'0 0.0
2017-Aug-26 03:58N 25°47' W 080°14'0 0.0
2017-Aug-26 03:28N 25°47' W 080°14'0 0.0
2017-Aug-26 02:55N 25°47' W 080°14'0 0.0
2017-Aug-26 02:28N 25°47' W 080°14'0 0.0
2017-Aug-26 01:58N 25°47' W 080°14'0 0.0
2017-Aug-26 01:28N 25°47' W 080°14'0 0.0
2017-Aug-26 00:55N 25°47' W 080°14'0 0.0
2017-Aug-26 00:28N 25°47' W 080°14'0 0.0
2017-Aug-25 23:58N 25°47' W 080°14'0 0.0
2017-Aug-25 23:28N 25°47' W 080°14'0 0.0
2017-Aug-25 22:58N 25°47' W 080°14'0 0.0
2017-Aug-25 22:28N 25°47' W 080°14'0 0.0
2017-Aug-25 21:58N 25°47' W 080°14'0 0.0
2017-Aug-25 21:28N 25°47' W 080°14'0 0.0
2017-Aug-25 20:58N 25°47' W 080°14'0 0.0
2017-Aug-25 20:25N 25°47' W 080°14'0 0.0
2017-Aug-25 19:58N 25°47' W 080°14'0 0.0
2017-Aug-25 19:28N 25°47' W 080°14'0 0.0
2017-Aug-25 18:58N 25°47' W 080°14'0 0.0
2017-Aug-25 18:28N 25°47' W 080°14'0 0.0
2017-Aug-25 17:58N 25°47' W 080°14'0 0.0
2017-Aug-25 17:28N 25°47' W 080°14'0 0.0
2017-Aug-25 16:58N 25°47' W 080°14'0 0.0
2017-Aug-25 16:28N 25°47' W 080°14'0 0.0
2017-Aug-25 15:58N 25°47' W 080°14'0 0.0
2017-Aug-25 15:28N 25°47' W 080°14'0 0.0
2017-Aug-25 14:58N 25°47' W 080°14'0 0.0
2017-Aug-25 13:58N 25°47' W 080°14'0 0.0
2017-Aug-25 13:25N 25°47' W 080°14'0 0.0
2017-Aug-25 12:58N 25°47' W 080°14'0 0.0
2017-Aug-25 12:28N 25°47' W 080°14'0 0.0
2017-Aug-25 12:01N 25°47' W 080°14'0 0.0
2017-Aug-25 11:31N 25°47' W 080°14'0 0.0
2017-Aug-25 11:00N 25°47' W 080°14'0 0.0
2017-Aug-25 10:30N 25°47' W 080°14'0 0.0
2017-Aug-25 10:00N 25°47' W 080°14'0 0.0
2017-Aug-25 09:21N 25°47' W 080°14'0 0.0
2017-Aug-25 09:00N 25°47' W 080°14'0 0.0
2017-Aug-25 08:30N 25°47' W 080°14'0 0.0
2017-Aug-25 08:00N 25°47' W 080°14'0 0.0
2017-Aug-25 07:30N 25°47' W 080°14'0 0.0
2017-Aug-25 07:00N 25°47' W 080°14'0 0.0
2017-Aug-25 06:30N 25°47' W 080°14'0 0.0
2017-Aug-25 05:51N 25°47' W 080°14'0 0.0
2017-Aug-25 05:30N 25°47' W 080°14'0 0.0
2017-Aug-25 04:57N 25°47' W 080°14'0 0.0
2017-Aug-25 04:27N 25°47' W 080°14'0 0.0
2017-Aug-25 04:00N 25°47' W 080°14'0 0.0
2017-Aug-25 03:30N 25°47' W 080°14'0 0.0
2017-Aug-25 03:00N 25°47' W 080°14'0 0.0
2017-Aug-25 02:24N 25°47' W 080°14'0 0.0
2017-Aug-25 01:54N 25°47' W 080°14'0 0.0
2017-Aug-25 01:30N 25°47' W 080°14'0 0.0
2017-Aug-25 00:54N 25°47' W 080°14'0 0.0
2017-Aug-25 00:30N 25°47' W 080°14'0 0.0
2017-Aug-25 00:00N 25°47' W 080°14'0 0.0
2017-Aug-24 23:27N 25°47' W 080°14'0 0.0
2017-Aug-24 23:00N 25°47' W 080°14'0 0.0
2017-Aug-24 22:24N 25°47' W 080°14'0 0.0
2017-Aug-24 22:00N 25°47' W 080°14'0 0.0
2017-Aug-24 21:30N 25°47' W 080°14'0 0.0
2017-Aug-24 21:00N 25°47' W 080°14'0 0.0
2017-Aug-24 20:30N 25°47' W 080°14'0 0.0
2017-Aug-24 19:57N 25°47' W 080°14'0 0.0
2017-Aug-24 19:30N 25°47' W 080°14'0 0.0
2017-Aug-24 18:57N 25°47' W 080°14'0 0.0
2017-Aug-24 18:30N 25°47' W 080°14'0 0.0
2017-Aug-24 18:00N 25°47' W 080°14'0 0.0
2017-Aug-24 17:30N 25°47' W 080°14'0 0.0
2017-Aug-24 17:00N 25°47' W 080°14'0 0.0
2017-Aug-24 16:30N 25°47' W 080°14'0 0.0
2017-Aug-24 16:00N 25°47' W 080°14'0 0.0
2017-Aug-24 15:30N 25°47' W 080°14'0 0.0
2017-Aug-24 15:00N 25°47' W 080°14'0 0.0
2017-Aug-24 14:30N 25°47' W 080°14'0 0.0
2017-Aug-24 14:00N 25°47' W 080°14'0 0.0
2017-Aug-24 13:30N 25°47' W 080°14'0 0.0
2017-Aug-24 13:00N 25°47' W 080°14'0 0.0
2017-Aug-24 12:30N 25°47' W 080°14'0 0.0
2017-Aug-24 12:00N 25°47' W 080°14'0 0.0
2017-Aug-24 11:30N 25°47' W 080°14'0 0.0
2017-Aug-24 11:00N 25°47' W 080°14'0 0.0
2017-Aug-24 10:30N 25°47' W 080°14'0 0.0
2017-Aug-24 10:00N 25°47' W 080°14'0 0.0
2017-Aug-24 09:30N 25°47' W 080°14'0 0.0
2017-Aug-24 09:00N 25°47' W 080°14'0 0.0
2017-Aug-24 08:30N 25°47' W 080°14'0 0.0
2017-Aug-24 07:57N 25°47' W 080°14'0 0.0
2017-Aug-24 07:30N 25°47' W 080°14'0 0.0
2017-Aug-24 07:00N 25°47' W 080°14'0 0.0
2017-Aug-24 06:30N 25°47' W 080°14'0 0.0
2017-Aug-24 06:00N 25°47' W 080°14'0 0.0
2017-Aug-24 05:30N 25°47' W 080°14'0 0.0
2017-Aug-24 04:57N 25°47' W 080°14'0 0.0
2017-Aug-24 04:30N 25°47' W 080°14'0 0.0
2017-Aug-24 04:00N 25°47' W 080°14'0 0.0
2017-Aug-24 03:30N 25°47' W 080°14'0 0.0
2017-Aug-24 02:54N 25°47' W 080°14'0 0.0
2017-Aug-24 02:30N 25°47' W 080°14'0 0.0
2017-Aug-24 02:00N 25°47' W 080°14'0 0.0
2017-Aug-24 01:30N 25°47' W 080°14'0 0.0
2017-Aug-24 00:56N 25°47' W 080°14'0 0.0
2017-Aug-24 00:29N 25°47' W 080°14'0 0.0
2017-Aug-23 23:59N 25°47' W 080°14'0 0.0
2017-Aug-23 23:29N 25°47' W 080°14'0 0.0
2017-Aug-23 22:59N 25°47' W 080°14'0 0.0
2017-Aug-23 22:29N 25°47' W 080°14'0 0.0
2017-Aug-23 21:56N 25°47' W 080°14'0 0.0
2017-Aug-23 21:29N 25°47' W 080°14'0 0.0
2017-Aug-23 20:56N 25°47' W 080°14'0 0.0
2017-Aug-23 20:29N 25°47' W 080°14'0 0.0
2017-Aug-23 19:53N 25°47' W 080°14'0 0.0
2017-Aug-23 19:29N 25°47' W 080°14'0 0.0
2017-Aug-23 18:56N 25°47' W 080°14'0 0.0
2017-Aug-23 18:29N 25°47' W 080°14'0 0.0
2017-Aug-23 17:59N 25°47' W 080°14'0 0.0
2017-Aug-23 17:29N 25°47' W 080°14'0 0.0
2017-Aug-23 16:59N 25°47' W 080°14'0 0.0
2017-Aug-23 16:29N 25°47' W 080°14'0 0.0
2017-Aug-23 15:56N 25°47' W 080°14'0 0.0
2017-Aug-23 15:29N 25°47' W 080°14'0 0.0
2017-Aug-23 14:59N 25°47' W 080°14'0 0.0
2017-Aug-23 13:59N 25°47' W 080°14'0 0.0
2017-Aug-23 13:29N 25°47' W 080°14'0 0.0
2017-Aug-23 12:59N 25°47' W 080°14'0 0.0
2017-Aug-23 12:29N 25°47' W 080°14'0 0.0
2017-Aug-23 11:59N 25°47' W 080°14'0 0.0
2017-Aug-23 11:29N 25°47' W 080°14'0 0.0
2017-Aug-23 10:59N 25°47' W 080°14'0 0.0
2017-Aug-23 10:29N 25°47' W 080°14'0 0.0
2017-Aug-23 09:59N 25°47' W 080°14'0 0.0
2017-Aug-23 09:29N 25°47' W 080°14'0 0.0
2017-Aug-23 08:59N 25°47' W 080°14'0 0.0
2017-Aug-23 08:29N 25°47' W 080°14'0 0.0
2017-Aug-23 07:59N 25°47' W 080°14'0 0.0
2017-Aug-23 07:29N 25°47' W 080°14'0 0.0
2017-Aug-23 06:59N 25°47' W 080°14'0 0.0
2017-Aug-23 06:29N 25°47' W 080°14'0 0.0
2017-Aug-23 05:59N 25°47' W 080°14'0 0.0
2017-Aug-23 05:29N 25°47' W 080°14'0 0.0
2017-Aug-23 04:59N 25°47' W 080°14'0 0.0
2017-Aug-23 04:29N 25°47' W 080°14'0 0.0
2017-Aug-23 03:59N 25°47' W 080°14'0 0.0
2017-Aug-23 03:26N 25°47' W 080°14'0 0.0
2017-Aug-23 02:59N 25°47' W 080°14'0 0.0
2017-Aug-23 02:29N 25°47' W 080°14'0 0.0
2017-Aug-23 01:56N 25°47' W 080°14'0 0.0
2017-Aug-23 01:26N 25°47' W 080°14'0 0.0
2017-Aug-23 00:56N 25°47' W 080°14'0 0.0
2017-Aug-23 00:20N 25°47' W 080°14'0 0.0
2017-Aug-22 23:59N 25°47' W 080°14'0 0.0
2017-Aug-22 23:29N 25°47' W 080°14'0 0.0
2017-Aug-22 22:59N 25°47' W 080°14'0 0.0
2017-Aug-22 22:29N 25°47' W 080°14'0 0.0
2017-Aug-22 21:56N 25°47' W 080°14'0 0.0
2017-Aug-22 21:23N 25°47' W 080°14'0 0.0
2017-Aug-22 20:56N 25°47' W 080°14'0 0.0
2017-Aug-22 20:26N 25°47' W 080°14'0 0.0
2017-Aug-22 19:56N 25°47' W 080°14'0 0.0
2017-Aug-22 19:26N 25°47' W 080°14'0 0.0
2017-Aug-22 18:59N 25°47' W 080°14'0 0.0
2017-Aug-22 18:29N 25°47' W 080°14'0 0.0
2017-Aug-22 17:56N 25°47' W 080°14'0 0.0
2017-Aug-22 17:26N 25°47' W 080°14'0 0.0
2017-Aug-22 16:59N 25°47' W 080°14'0 0.0
2017-Aug-22 16:29N 25°47' W 080°14'0 0.0
2017-Aug-22 15:59N 25°47' W 080°14'0 0.0
2017-Aug-22 15:28N 25°47' W 080°14'0 0.0
2017-Aug-22 14:59N 25°47' W 080°14'0 0.0
2017-Aug-22 14:28N 25°47' W 080°14'0 0.0
2017-Aug-22 13:59N 25°47' W 080°14'0 0.0
2017-Aug-22 13:23N 25°47' W 080°14'0 0.0
2017-Aug-22 12:59N 25°47' W 080°14'0 0.0
2017-Aug-22 12:23N 25°47' W 080°14'0 0.0
2017-Aug-22 11:56N 25°47' W 080°14'0 0.0
2017-Aug-22 11:29N 25°47' W 080°14'0 0.0
2017-Aug-22 10:59N 25°47' W 080°14'0 0.0
2017-Aug-22 10:26N 25°47' W 080°14'0 0.0
2017-Aug-22 09:59N 25°47' W 080°14'0 0.0
2017-Aug-22 09:29N 25°47' W 080°14'0 0.0
2017-Aug-22 08:56N 25°47' W 080°14'0 0.0
2017-Aug-22 08:29N 25°47' W 080°14'0 0.0
2017-Aug-22 07:59N 25°47' W 080°14'0 0.0
2017-Aug-22 07:29N 25°47' W 080°14'0 0.0
2017-Aug-22 06:59N 25°47' W 080°14'0 0.0
2017-Aug-22 06:29N 25°47' W 080°14'0 0.0
2017-Aug-22 05:59N 25°47' W 080°14'0 0.0
2017-Aug-22 05:29N 25°47' W 080°14'0 0.0
2017-Aug-22 04:59N 25°47' W 080°14'0 0.0
2017-Aug-22 04:26N 25°47' W 080°14'0 0.0
2017-Aug-22 03:59N 25°47' W 080°14'0 0.0
2017-Aug-22 03:29N 25°47' W 080°14'0 0.0
2017-Aug-22 02:59N 25°47' W 080°14'0 0.0
2017-Aug-22 02:29N 25°47' W 080°14'0 0.0
2017-Aug-22 01:59N 25°47' W 080°14'0 0.0
2017-Aug-22 01:29N 25°47' W 080°14'0 0.0
2017-Aug-22 00:56N 25°47' W 080°14'0 0.0
2017-Aug-22 00:29N 25°47' W 080°14'0 0.0
2017-Aug-21 23:58N 25°47' W 080°14'0 0.0
2017-Aug-21 23:28N 25°47' W 080°14'0 0.0
2017-Aug-21 22:58N 25°47' W 080°14'0 0.0
2017-Aug-21 22:28N 25°47' W 080°14'0 0.0
2017-Aug-21 21:58N 25°47' W 080°14'0 0.0
2017-Aug-21 21:28N 25°47' W 080°14'0 0.0
2017-Aug-21 20:58N 25°47' W 080°14'0 0.0
2017-Aug-21 20:28N 25°47' W 080°14'0 0.0
2017-Aug-21 19:58N 25°47' W 080°14'0 0.0
2017-Aug-21 19:28N 25°47' W 080°14'0 0.0
2017-Aug-21 18:58N 25°47' W 080°14'0 0.0
2017-Aug-21 18:28N 25°47' W 080°14'0 0.0
2017-Aug-21 17:58N 25°47' W 080°14'  
Track history (hours):
 
Tides and Currents Weather Stations Pressure Air Temp Water Temp Dewpoint Dewpoint Depression Visibility Wind Speed Wind Dir Waves Ship Positions

Magestic

Last reported at 2017-Aug-31 17:42 UTC. Time now 2017-Sep-23 23:48 UTC.
Position N 25°34' W 079°43'.
Warning: this ship's position is 23 days out of date.

; draft 3.4 m.

Type: Cargo ship. MMSI: 377901062.

Date/timePositionNaut miles runAvg speedWind from/ knotsBaromVisibWave heightAir tempDewpointWater temp
2017-Aug-31 17:42N 25°34' W 079°43'1 6.5
2017-Aug-31 17:29N 25°35' W 079°45'3 6.2
2017-Aug-31 16:57N 25°38' W 079°47'3 5.7
2017-Aug-31 16:30N 25°39' W 079°49'3 5.4
2017-Aug-31 16:00N 25°42' W 079°51'3 5.8
2017-Aug-31 15:30N 25°44' W 079°53'4 8.3
2017-Aug-31 15:00N 25°44' W 079°58'4 8.3
2017-Aug-31 14:30N 25°45' W 080°03'4 7.4
2017-Aug-31 14:00N 25°45' W 080°07'4 7.6
2017-Aug-31 13:30N 25°46' W 080°11'1 2.7
2017-Aug-31 13:00N 25°47' W 080°12'2 2.9
2017-Aug-31 12:29N 25°47' W 080°14'0 0.0
2017-Aug-31 11:59N 25°47' W 080°14'0 0.0
2017-Aug-31 11:26N 25°47' W 080°14'0 0.0
2017-Aug-31 10:59N 25°47' W 080°14'0 0.0
2017-Aug-31 10:29N 25°47' W 080°14'0 0.0
2017-Aug-31 09:59N 25°47' W 080°14'0 0.0
2017-Aug-31 09:29N 25°47' W 080°14'0 0.0
2017-Aug-31 08:59N 25°47' W 080°14'0 0.0
2017-Aug-31 08:29N 25°47' W 080°14'0 0.0
2017-Aug-31 07:59N 25°47' W 080°14'0 0.0
2017-Aug-31 07:29N 25°47' W 080°14'0 0.0
2017-Aug-31 06:59N 25°47' W 080°14'0 0.0
2017-Aug-31 06:29N 25°47' W 080°14'0 0.0
2017-Aug-31 05:59N 25°47' W 080°14'0 0.0
2017-Aug-31 05:29N 25°47' W 080°14'0 0.0
2017-Aug-31 04:59N 25°47' W 080°14'0 0.0
2017-Aug-31 04:26N 25°47' W 080°14'0 0.0
2017-Aug-31 03:59N 25°47' W 080°14'0 0.0
2017-Aug-31 03:29N 25°47' W 080°14'0 0.0
2017-Aug-31 02:58N 25°47' W 080°14'0 0.0
2017-Aug-31 02:28N 25°47' W 080°14'0 0.0
2017-Aug-31 01:58N 25°47' W 080°14'0 0.0
2017-Aug-31 01:28N 25°47' W 080°14'0 0.0
2017-Aug-31 00:58N 25°47' W 080°14'0 0.0
2017-Aug-31 00:28N 25°47' W 080°14'0 0.0
2017-Aug-30 23:58N 25°47' W 080°14'0 0.0
2017-Aug-30 23:28N 25°47' W 080°14'0 0.0
2017-Aug-30 22:58N 25°47' W 080°14'0 0.0
2017-Aug-30 22:25N 25°47' W 080°14'0 0.0
2017-Aug-30 21:58N 25°47' W 080°14'0 0.0
2017-Aug-30 21:28N 25°47' W 080°14'0 0.0
2017-Aug-30 20:55N 25°47' W 080°14'0 0.0
2017-Aug-30 20:28N 25°47' W 080°14'0 0.0
2017-Aug-30 19:55N 25°47' W 080°14'0 0.0
2017-Aug-30 19:28N 25°47' W 080°14'0 0.0
2017-Aug-30 18:58N 25°47' W 080°14'0 0.0
2017-Aug-30 18:25N 25°47' W 080°14'0 0.0
2017-Aug-30 17:55N 25°47' W 080°14'0 0.0
2017-Aug-30 17:28N 25°47' W 080°14'0 0.0
2017-Aug-30 16:55N 25°47' W 080°14'0 0.0
2017-Aug-30 16:28N 25°47' W 080°14'0 0.0
2017-Aug-30 15:52N 25°47' W 080°14'0 0.0
2017-Aug-30 15:28N 25°47' W 080°14'0 0.0
2017-Aug-30 14:55N 25°47' W 080°14'0 0.0
2017-Aug-30 14:28N 25°47' W 080°14'0 0.0
2017-Aug-30 13:58N 25°47' W 080°14'0 0.0
2017-Aug-30 13:28N 25°47' W 080°14'0 0.0
2017-Aug-30 12:55N 25°47' W 080°14'0 0.0
2017-Aug-30 12:28N 25°47' W 080°14'0 0.0
2017-Aug-30 11:55N 25°47' W 080°14'0 0.0
2017-Aug-30 11:28N 25°47' W 080°14'0 0.0
2017-Aug-30 10:58N 25°47' W 080°14'0 0.0
2017-Aug-30 10:25N 25°47' W 080°14'0 0.0
2017-Aug-30 09:58N 25°47' W 080°14'0 0.0
2017-Aug-30 09:28N 25°47' W 080°14'0 0.0
2017-Aug-30 08:58N 25°47' W 080°14'0 0.0
2017-Aug-30 08:28N 25°47' W 080°14'0 0.0
2017-Aug-30 07:58N 25°47' W 080°14'0 0.0
2017-Aug-30 07:28N 25°47' W 080°14'0 0.0
2017-Aug-30 06:58N 25°47' W 080°14'0 0.0
2017-Aug-30 06:28N 25°47' W 080°14'0 0.0
2017-Aug-30 05:58N 25°47' W 080°14'0 0.0
2017-Aug-30 05:28N 25°47' W 080°14'0 0.0
2017-Aug-30 04:58N 25°47' W 080°14'0 0.0
2017-Aug-30 04:28N 25°47' W 080°14'0 0.0
2017-Aug-30 03:58N 25°47' W 080°14'0 0.0
2017-Aug-30 03:28N 25°47' W 080°14'0 0.0
2017-Aug-30 02:58N 25°47' W 080°14'0 0.0
2017-Aug-30 02:28N 25°47' W 080°14'0 0.0
2017-Aug-30 01:58N 25°47' W 080°14'0 0.0
2017-Aug-30 01:28N 25°47' W 080°14'0 0.0
2017-Aug-30 00:58N 25°47' W 080°14'0 0.0
2017-Aug-30 00:28N 25°47' W 080°14'0 0.0
2017-Aug-29 23:58N 25°47' W 080°14'0 0.0
2017-Aug-29 23:28N 25°47' W 080°14'0 0.0
2017-Aug-29 22:58N 25°47' W 080°14'0 0.0
2017-Aug-29 22:28N 25°47' W 080°14'0 0.0
2017-Aug-29 21:58N 25°47' W 080°14'0 0.0
2017-Aug-29 21:25N 25°47' W 080°14'0 0.0
2017-Aug-29 20:58N 25°47' W 080°14'0 0.0
2017-Aug-29 20:28N 25°47' W 080°14'0 0.0
2017-Aug-29 19:58N 25°47' W 080°14'0 0.0
2017-Aug-29 19:25N 25°47' W 080°14'0 0.0
2017-Aug-29 18:52N 25°47' W 080°14'0 0.0
2017-Aug-29 18:28N 25°47' W 080°14'0 0.0
2017-Aug-29 18:01N 25°47' W 080°14'0 0.0
2017-Aug-29 17:31N 25°47' W 080°14'0 0.0
2017-Aug-29 17:01N 25°47' W 080°14'0 0.0
2017-Aug-29 16:28N 25°47' W 080°14'0 0.0
2017-Aug-29 15:57N 25°47' W 080°14'0 0.0
2017-Aug-29 15:30N 25°47' W 080°14'0 0.0
2017-Aug-29 15:00N 25°47' W 080°14'0 0.0
2017-Aug-29 14:30N 25°47' W 080°14'0 0.0
2017-Aug-29 13:57N 25°47' W 080°14'0 0.0
2017-Aug-29 13:27N 25°47' W 080°14'0 0.0
2017-Aug-29 13:00N 25°47' W 080°14'0 0.0
2017-Aug-29 12:30N 25°47' W 080°14'0 0.0
2017-Aug-29 12:00N 25°47' W 080°14'0 0.0
2017-Aug-29 11:30N 25°47' W 080°14'0 0.0
2017-Aug-29 11:00N 25°47' W 080°14'0 0.0
2017-Aug-29 10:30N 25°47' W 080°14'0 0.0
2017-Aug-29 10:00N 25°47' W 080°14'0 0.0
2017-Aug-29 09:30N 25°47' W 080°14'0 0.0
2017-Aug-29 09:00N 25°47' W 080°14'0 0.0
2017-Aug-29 08:27N 25°47' W 080°14'0 0.0
2017-Aug-29 07:57N 25°47' W 080°14'0 0.0
2017-Aug-29 07:30N 25°47' W 080°14'0 0.0
2017-Aug-29 07:00N 25°47' W 080°14'0 0.0
2017-Aug-29 06:30N 25°47' W 080°14'0 0.0
2017-Aug-29 05:57N 25°47' W 080°14'0 0.0
2017-Aug-29 05:30N 25°47' W 080°14'0 0.0
2017-Aug-29 04:54N 25°47' W 080°14'0 0.0
2017-Aug-29 04:30N 25°47' W 080°14'0 0.0
2017-Aug-29 03:57N 25°47' W 080°14'0 0.0
2017-Aug-29 03:30N 25°47' W 080°14'0 0.0
2017-Aug-29 03:00N 25°47' W 080°14'0 0.0
2017-Aug-29 02:30N 25°47' W 080°14'0 0.0
2017-Aug-29 02:00N 25°47' W 080°14'0 0.0
2017-Aug-29 01:30N 25°47' W 080°14'0 0.0
2017-Aug-29 01:00N 25°47' W 080°14'0 0.0
2017-Aug-29 00:30N 25°47' W 080°14'0 0.0
2017-Aug-29 00:00N 25°47' W 080°14'0 0.0
2017-Aug-28 23:30N 25°47' W 080°14'0 0.0
2017-Aug-28 23:00N 25°47' W 080°14'0 0.0
2017-Aug-28 22:30N 25°47' W 080°14'0 0.0
2017-Aug-28 22:00N 25°47' W 080°14'0 0.0
2017-Aug-28 21:30N 25°47' W 080°14'0 0.0
2017-Aug-28 20:57N 25°47' W 080°14'0 0.0
2017-Aug-28 20:30N 25°47' W 080°14'0 0.0
2017-Aug-28 19:54N 25°47' W 080°14'0 0.0
2017-Aug-28 19:30N 25°47' W 080°14'0 0.0
2017-Aug-28 19:00N 25°47' W 080°14'0 0.0
2017-Aug-28 18:30N 25°47' W 080°14'0 0.0
2017-Aug-28 18:00N 25°47' W 080°14'0 0.0
2017-Aug-28 17:30N 25°47' W 080°14'0 0.0
2017-Aug-28 17:00N 25°47' W 080°14'0 0.0
2017-Aug-28 16:30N 25°47' W 080°14'0 0.0
2017-Aug-28 16:00N 25°47' W 080°14'0 0.0
2017-Aug-28 15:30N 25°47' W 080°14'0 0.0
2017-Aug-28 14:57N 25°47' W 080°14'0 0.0
2017-Aug-28 14:30N 25°47' W 080°14'0 0.0
2017-Aug-28 14:00N 25°47' W 080°14'0 0.0
2017-Aug-28 13:30N 25°47' W 080°14'0 0.0
2017-Aug-28 12:54N 25°47' W 080°14'0 0.0
2017-Aug-28 12:27N 25°47' W 080°14'0 0.0
2017-Aug-28 12:00N 25°47' W 080°14'0 0.0
2017-Aug-28 11:30N 25°47' W 080°14'0 0.0
2017-Aug-28 10:54N 25°47' W 080°14'0 0.0
2017-Aug-28 10:30N 25°47' W 080°14'0 0.0
2017-Aug-28 10:00N 25°47' W 080°14'0 0.0
2017-Aug-28 09:30N 25°47' W 080°14'0 0.0
2017-Aug-28 08:54N 25°47' W 080°14'0 0.0
2017-Aug-28 08:27N 25°47' W 080°14'0 0.0
2017-Aug-28 08:00N 25°47' W 080°14'0 0.0
2017-Aug-28 07:27N 25°47' W 080°14'0 0.0
2017-Aug-28 07:00N 25°47' W 080°14'0 0.0
2017-Aug-28 06:29N 25°47' W 080°14'0 0.0
2017-Aug-28 05:56N 25°47' W 080°14'0 0.0
2017-Aug-28 05:29N 25°47' W 080°14'0 0.0
2017-Aug-28 04:56N 25°47' W 080°14'0 0.0
2017-Aug-28 04:29N 25°47' W 080°14'0 0.0
2017-Aug-28 03:59N 25°47' W 080°14'0 0.0
2017-Aug-28 03:29N 25°47' W 080°14'0 0.0
2017-Aug-28 02:59N 25°47' W 080°14'0 0.0
2017-Aug-28 02:29N 25°47' W 080°14'0 0.0
2017-Aug-28 01:59N 25°47' W 080°14'0 0.0
2017-Aug-28 01:29N 25°47' W 080°14'0 0.0
2017-Aug-28 00:59N 25°47' W 080°14'0 0.0
2017-Aug-28 00:29N 25°47' W 080°14'0 0.0
2017-Aug-27 23:59N 25°47' W 080°14'0 0.0
2017-Aug-27 23:29N 25°47' W 080°14'0 0.0
2017-Aug-27 22:59N 25°47' W 080°14'0 0.0
2017-Aug-27 22:29N 25°47' W 080°14'0 0.0
2017-Aug-27 21:59N 25°47' W 080°14'0 0.0
2017-Aug-27 21:29N 25°47' W 080°14'0 0.0
2017-Aug-27 20:59N 25°47' W 080°14'0 0.0
2017-Aug-27 20:29N 25°47' W 080°14'0 0.0
2017-Aug-27 19:59N 25°47' W 080°14'0 0.0
2017-Aug-27 19:29N 25°47' W 080°14'0 0.0
2017-Aug-27 18:59N 25°47' W 080°14'0 0.0
2017-Aug-27 18:29N 25°47' W 080°14'0 0.0
2017-Aug-27 17:59N 25°47' W 080°14'0 0.0
2017-Aug-27 17:29N 25°47' W 080°14'0 0.0
2017-Aug-27 16:59N 25°47' W 080°14'0 0.0
2017-Aug-27 16:29N 25°47' W 080°14'0 0.0
2017-Aug-27 15:59N 25°47' W 080°14'0 0.0
2017-Aug-27 15:29N 25°47' W 080°14'0 0.0
2017-Aug-27 14:59N 25°47' W 080°14'0 0.0
2017-Aug-27 14:29N 25°47' W 080°14'0 0.0
2017-Aug-27 13:59N 25°47' W 080°14'0 0.0
2017-Aug-27 13:26N 25°47' W 080°14'0 0.0
2017-Aug-27 12:59N 25°47' W 080°14'0 0.0
2017-Aug-27 12:29N 25°47' W 080°14'0 0.0
2017-Aug-27 11:59N 25°47' W 080°14'0 0.0
2017-Aug-27 11:26N 25°47' W 080°14'0 0.0
2017-Aug-27 10:53N 25°47' W 080°14'0 0.0
2017-Aug-27 10:26N 25°47' W 080°14'0 0.0
2017-Aug-27 09:59N 25°47' W 080°14'0 0.0
2017-Aug-27 09:29N 25°47' W 080°14'0 0.0
2017-Aug-27 08:59N 25°47' W 080°14'0 0.0
2017-Aug-27 08:29N 25°47' W 080°14'0 0.0
2017-Aug-27 07:53N 25°47' W 080°14'0 0.0
2017-Aug-27 07:29N 25°47' W 080°14'0 0.0
2017-Aug-27 06:56N 25°47' W 080°14'0 0.0
2017-Aug-27 06:26N 25°47' W 080°14'0 0.0
2017-Aug-27 05:59N 25°47' W 080°14'0 0.0
2017-Aug-27 05:29N 25°47' W 080°14'0 0.0
2017-Aug-27 04:59N 25°47' W 080°14'0 0.0
2017-Aug-27 04:29N 25°47' W 080°14'0 0.0
2017-Aug-27 03:59N 25°47' W 080°14'0 0.0
2017-Aug-27 03:29N 25°47' W 080°14'0 0.0
2017-Aug-27 02:59N 25°47' W 080°14'0 0.0
2017-Aug-27 02:26N 25°47' W 080°14'0 0.0
2017-Aug-27 01:59N 25°47' W 080°14'0 0.0
2017-Aug-27 01:26N 25°47' W 080°14'0 0.0
2017-Aug-27 00:59N 25°47' W 080°14'0 0.0
2017-Aug-27 00:29N 25°47' W 080°14'0 0.0
2017-Aug-26 23:59N 25°47' W 080°14'0 0.0
2017-Aug-26 23:29N 25°47' W 080°14'0 0.0
2017-Aug-26 22:59N 25°47' W 080°14'0 0.0
2017-Aug-26 22:29N 25°47' W 080°14'0 0.0
2017-Aug-26 21:59N 25°47' W 080°14'0 0.0
2017-Aug-26 21:29N 25°47' W 080°14'0 0.0
2017-Aug-26 20:58N 25°47' W 080°14'0 0.0
2017-Aug-26 20:28N 25°47' W 080°14'0 0.0
2017-Aug-26 19:58N 25°47' W 080°14'0 0.0
2017-Aug-26 19:28N 25°47' W 080°14'0 0.0
2017-Aug-26 18:58N 25°47' W 080°14'0 0.0
2017-Aug-26 18:28N 25°47' W 080°14'0 0.0
2017-Aug-26 17:58N 25°47' W 080°14'0 0.0
2017-Aug-26 17:28N 25°47' W 080°14'0 0.0
2017-Aug-26 16:58N 25°47' W 080°14'0 0.0
2017-Aug-26 16:28N 25°47' W 080°14'0 0.0
2017-Aug-26 15:58N 25°47' W 080°14'0 0.0
2017-Aug-26 15:28N 25°47' W 080°14'0 0.0
2017-Aug-26 14:58N 25°47' W 080°14'0 0.0
2017-Aug-26 13:58N 25°47' W 080°14'0 0.0
2017-Aug-26 13:28N 25°47' W 080°14'0 0.0
2017-Aug-26 12:58N 25°47' W 080°14'0 0.0
2017-Aug-26 12:28N 25°47' W 080°14'0 0.0
2017-Aug-26 11:58N 25°47' W 080°14'0 0.0
2017-Aug-26 11:28N 25°47' W 080°14'0 0.0
2017-Aug-26 10:58N 25°47' W 080°14'0 0.0
2017-Aug-26 10:28N 25°47' W 080°14'0 0.0
2017-Aug-26 09:55N 25°47' W 080°14'0 0.0
2017-Aug-26 09:28N 25°47' W 080°14'0 0.0
2017-Aug-26 08:58N 25°47' W 080°14'0 0.0
2017-Aug-26 08:28N 25°47' W 080°14'0 0.0
2017-Aug-26 07:58N 25°47' W 080°14'0 0.0
2017-Aug-26 07:22N 25°47' W 080°14'0 0.0
2017-Aug-26 06:58N 25°47' W 080°14'0 0.0
2017-Aug-26 06:28N 25°47' W 080°14'0 0.0
2017-Aug-26 05:58N 25°47' W 080°14'0 0.0
2017-Aug-26 05:28N 25°47' W 080°14'0 0.0
2017-Aug-26 04:55N 25°47' W 080°14'0 0.0
2017-Aug-26 04:28N 25°47' W 080°14'0 0.0
2017-Aug-26 03:58N 25°47' W 080°14'0 0.0
2017-Aug-26 03:28N 25°47' W 080°14'0 0.0
2017-Aug-26 02:55N 25°47' W 080°14'0 0.0
2017-Aug-26 02:28N 25°47' W 080°14'0 0.0
2017-Aug-26 01:58N 25°47' W 080°14'0 0.0
2017-Aug-26 01:28N 25°47' W 080°14'0 0.0
2017-Aug-26 00:55N 25°47' W 080°14'0 0.0
2017-Aug-26 00:28N 25°47' W 080°14'0 0.0
2017-Aug-25 23:58N 25°47' W 080°14'0 0.0
2017-Aug-25 23:28N 25°47' W 080°14'0 0.0
2017-Aug-25 22:58N 25°47' W 080°14'0 0.0
2017-Aug-25 22:28N 25°47' W 080°14'0 0.0
2017-Aug-25 21:58N 25°47' W 080°14'0 0.0
2017-Aug-25 21:28N 25°47' W 080°14'0 0.0
2017-Aug-25 20:58N 25°47' W 080°14'0 0.0
2017-Aug-25 20:25N 25°47' W 080°14'0 0.0
2017-Aug-25 19:58N 25°47' W 080°14'0 0.0
2017-Aug-25 19:28N 25°47' W 080°14'0 0.0
2017-Aug-25 18:58N 25°47' W 080°14'0 0.0
2017-Aug-25 18:28N 25°47' W 080°14'0 0.0
2017-Aug-25 17:58N 25°47' W 080°14'0 0.0
2017-Aug-25 17:28N 25°47' W 080°14'0 0.0
2017-Aug-25 16:58N 25°47' W 080°14'0 0.0
2017-Aug-25 16:28N 25°47' W 080°14'0 0.0
2017-Aug-25 15:58N 25°47' W 080°14'0 0.0
2017-Aug-25 15:28N 25°47' W 080°14'0 0.0
2017-Aug-25 14:58N 25°47' W 080°14'0 0.0
2017-Aug-25 13:58N 25°47' W 080°14'0 0.0
2017-Aug-25 13:25N 25°47' W 080°14'0 0.0
2017-Aug-25 12:58N 25°47' W 080°14'0 0.0
2017-Aug-25 12:28N 25°47' W 080°14'0 0.0
2017-Aug-25 12:01N 25°47' W 080°14'0 0.0
2017-Aug-25 11:31N 25°47' W 080°14'0 0.0
2017-Aug-25 11:00N 25°47' W 080°14'0 0.0
2017-Aug-25 10:30N 25°47' W 080°14'0 0.0
2017-Aug-25 10:00N 25°47' W 080°14'0 0.0
2017-Aug-25 09:21N 25°47' W 080°14'0 0.0
2017-Aug-25 09:00N 25°47' W 080°14'0 0.0
2017-Aug-25 08:30N 25°47' W 080°14'0 0.0
2017-Aug-25 08:00N 25°47' W 080°14'0 0.0
2017-Aug-25 07:30N 25°47' W 080°14'0 0.0
2017-Aug-25 07:00N 25°47' W 080°14'0 0.0
2017-Aug-25 06:30N 25°47' W 080°14'0 0.0
2017-Aug-25 05:51N 25°47' W 080°14'0 0.0
2017-Aug-25 05:30N 25°47' W 080°14'0 0.0
2017-Aug-25 04:57N 25°47' W 080°14'0 0.0
2017-Aug-25 04:27N 25°47' W 080°14'0 0.0
2017-Aug-25 04:00N 25°47' W 080°14'0 0.0
2017-Aug-25 03:30N 25°47' W 080°14'0 0.0
2017-Aug-25 03:00N 25°47' W 080°14'0 0.0
2017-Aug-25 02:24N 25°47' W 080°14'0 0.0
2017-Aug-25 01:54N 25°47' W 080°14'0 0.0
2017-Aug-25 01:30N 25°47' W 080°14'0 0.0
2017-Aug-25 00:54N 25°47' W 080°14'0 0.0
2017-Aug-25 00:30N 25°47' W 080°14'0 0.0
2017-Aug-25 00:00N 25°47' W 080°14'0 0.0
2017-Aug-24 23:27N 25°47' W 080°14'0 0.0
2017-Aug-24 23:00N 25°47' W 080°14'0 0.0
2017-Aug-24 22:24N 25°47' W 080°14'0 0.0
2017-Aug-24 22:00N 25°47' W 080°14'0 0.0
2017-Aug-24 21:30N 25°47' W 080°14'0 0.0
2017-Aug-24 21:00N 25°47' W 080°14'0 0.0
2017-Aug-24 20:30N 25°47' W 080°14'0 0.0
2017-Aug-24 19:57N 25°47' W 080°14'0 0.0
2017-Aug-24 19:30N 25°47' W 080°14'0 0.0
2017-Aug-24 18:57N 25°47' W 080°14'0 0.0
2017-Aug-24 18:30N 25°47' W 080°14'0 0.0
2017-Aug-24 18:00N 25°47' W 080°14'0 0.0
2017-Aug-24 17:30N 25°47' W 080°14'0 0.0
2017-Aug-24 17:00N 25°47' W 080°14'0 0.0
2017-Aug-24 16:30N 25°47' W 080°14'0 0.0
2017-Aug-24 16:00N 25°47' W 080°14'0 0.0
2017-Aug-24 15:30N 25°47' W 080°14'0 0.0
2017-Aug-24 15:00N 25°47' W 080°14'0 0.0
2017-Aug-24 14:30N 25°47' W 080°14'0 0.0
2017-Aug-24 14:00N 25°47' W 080°14'0 0.0
2017-Aug-24 13:30N 25°47' W 080°14'0 0.0
2017-Aug-24 13:00N 25°47' W 080°14'0 0.0
2017-Aug-24 12:30N 25°47' W 080°14'0 0.0
2017-Aug-24 12:00N 25°47' W 080°14'0 0.0
2017-Aug-24 11:30N 25°47' W 080°14'0 0.0
2017-Aug-24 11:00N 25°47' W 080°14'0 0.0
2017-Aug-24 10:30N 25°47' W 080°14'0 0.0
2017-Aug-24 10:00N 25°47' W 080°14'0 0.0
2017-Aug-24 09:30N 25°47' W 080°14'0 0.0
2017-Aug-24 09:00N 25°47' W 080°14'0 0.0
2017-Aug-24 08:30N 25°47' W 080°14'0 0.0
2017-Aug-24 07:57N 25°47' W 080°14'0 0.0
2017-Aug-24 07:30N 25°47' W 080°14'0 0.0
2017-Aug-24 07:00N 25°47' W 080°14'0 0.0
2017-Aug-24 06:30N 25°47' W 080°14'0 0.0
2017-Aug-24 06:00N 25°47' W 080°14'0 0.0
2017-Aug-24 05:30N 25°47' W 080°14'0 0.0
2017-Aug-24 04:57N 25°47' W 080°14'0 0.0
2017-Aug-24 04:30N 25°47' W 080°14'0 0.0
2017-Aug-24 04:00N 25°47' W 080°14'0 0.0
2017-Aug-24 03:30N 25°47' W 080°14'0 0.0
2017-Aug-24 02:54N 25°47' W 080°14'0 0.0
2017-Aug-24 02:30N 25°47' W 080°14'0 0.0
2017-Aug-24 02:00N 25°47' W 080°14'0 0.0
2017-Aug-24 01:30N 25°47' W 080°14'0 0.0
2017-Aug-24 00:56N 25°47' W 080°14'0 0.0
2017-Aug-24 00:29N 25°47' W 080°14'0 0.0
2017-Aug-23 23:59N 25°47' W 080°14'0 0.0
2017-Aug-23 23:29N 25°47' W 080°14'0 0.0
2017-Aug-23 22:59N 25°47' W 080°14'0 0.0
2017-Aug-23 22:29N 25°47' W 080°14'0 0.0
2017-Aug-23 21:56N 25°47' W 080°14'0 0.0
2017-Aug-23 21:29N 25°47' W 080°14'0 0.0
2017-Aug-23 20:56N 25°47' W 080°14'0 0.0
2017-Aug-23 20:29N 25°47' W 080°14'0 0.0
2017-Aug-23 19:53N 25°47' W 080°14'0 0.0
2017-Aug-23 19:29N 25°47' W 080°14'0 0.0
2017-Aug-23 18:56N 25°47' W 080°14'0 0.0
2017-Aug-23 18:29N 25°47' W 080°14'0 0.0
2017-Aug-23 17:59N 25°47' W 080°14'0 0.0
2017-Aug-23 17:29N 25°47' W 080°14'0 0.0
2017-Aug-23 16:59N 25°47' W 080°14'0 0.0
2017-Aug-23 16:29N 25°47' W 080°14'0 0.0
2017-Aug-23 15:56N 25°47' W 080°14'0 0.0
2017-Aug-23 15:29N 25°47' W 080°14'0 0.0
2017-Aug-23 14:59N 25°47' W 080°14'0 0.0
2017-Aug-23 13:59N 25°47' W 080°14'0 0.0
2017-Aug-23 13:29N 25°47' W 080°14'0 0.0
2017-Aug-23 12:59N 25°47' W 080°14'0 0.0
2017-Aug-23 12:29N 25°47' W 080°14'0 0.0
2017-Aug-23 11:59N 25°47' W 080°14'0 0.0
2017-Aug-23 11:29N 25°47' W 080°14'0 0.0
2017-Aug-23 10:59N 25°47' W 080°14'0 0.0
2017-Aug-23 10:29N 25°47' W 080°14'0 0.0
2017-Aug-23 09:59N 25°47' W 080°14'0 0.0
2017-Aug-23 09:29N 25°47' W 080°14'0 0.0
2017-Aug-23 08:59N 25°47' W 080°14'0 0.0
2017-Aug-23 08:29N 25°47' W 080°14'0 0.0
2017-Aug-23 07:59N 25°47' W 080°14'0 0.0
2017-Aug-23 07:29N 25°47' W 080°14'0 0.0
2017-Aug-23 06:59N 25°47' W 080°14'0 0.0
2017-Aug-23 06:29N 25°47' W 080°14'0 0.0
2017-Aug-23 05:59N 25°47' W 080°14'0 0.0
2017-Aug-23 05:29N 25°47' W 080°14'0 0.0
2017-Aug-23 04:59N 25°47' W 080°14'0 0.0
2017-Aug-23 04:29N 25°47' W 080°14'0 0.0
2017-Aug-23 03:59N 25°47' W 080°14'0 0.0
2017-Aug-23 03:26N 25°47' W 080°14'0 0.0
2017-Aug-23 02:59N 25°47' W 080°14'0 0.0
2017-Aug-23 02:29N 25°47' W 080°14'0 0.0
2017-Aug-23 01:56N 25°47' W 080°14'0 0.0
2017-Aug-23 01:26N 25°47' W 080°14'0 0.0
2017-Aug-23 00:56N 25°47' W 080°14'0 0.0
2017-Aug-23 00:20N 25°47' W 080°14'0 0.0
2017-Aug-22 23:59N 25°47' W 080°14'0 0.0
2017-Aug-22 23:29N 25°47' W 080°14'0 0.0
2017-Aug-22 22:59N 25°47' W 080°14'0 0.0
2017-Aug-22 22:29N 25°47' W 080°14'0 0.0
2017-Aug-22 21:56N 25°47' W 080°14'0 0.0
2017-Aug-22 21:23N 25°47' W 080°14'0 0.0
2017-Aug-22 20:56N 25°47' W 080°14'0 0.0
2017-Aug-22 20:26N 25°47' W 080°14'0 0.0
2017-Aug-22 19:56N 25°47' W 080°14'0 0.0
2017-Aug-22 19:26N 25°47' W 080°14'0 0.0
2017-Aug-22 18:59N 25°47' W 080°14'0 0.0
2017-Aug-22 18:29N 25°47' W 080°14'0 0.0
2017-Aug-22 17:56N 25°47' W 080°14'0 0.0
2017-Aug-22 17:26N 25°47' W 080°14'0 0.0
2017-Aug-22 16:59N 25°47' W 080°14'0 0.0
2017-Aug-22 16:29N 25°47' W 080°14'0 0.0
2017-Aug-22 15:59N 25°47' W 080°14'0 0.0
2017-Aug-22 15:28N 25°47' W 080°14'0 0.0
2017-Aug-22 14:59N 25°47' W 080°14'0 0.0
2017-Aug-22 14:28N 25°47' W 080°14'0 0.0
2017-Aug-22 13:59N 25°47' W 080°14'0 0.0
2017-Aug-22 13:23N 25°47' W 080°14'0 0.0
2017-Aug-22 12:59N 25°47' W 080°14'0 0.0
2017-Aug-22 12:23N 25°47' W 080°14'0 0.0
2017-Aug-22 11:56N 25°47' W 080°14'0 0.0
2017-Aug-22 11:29N 25°47' W 080°14'0 0.0
2017-Aug-22 10:59N 25°47' W 080°14'0 0.0
2017-Aug-22 10:26N 25°47' W 080°14'0 0.0
2017-Aug-22 09:59N 25°47' W 080°14'0 0.0
2017-Aug-22 09:29N 25°47' W 080°14'0 0.0
2017-Aug-22 08:56N 25°47' W 080°14'0 0.0
2017-Aug-22 08:29N 25°47' W 080°14'0 0.0
2017-Aug-22 07:59N 25°47' W 080°14'0 0.0
2017-Aug-22 07:29N 25°47' W 080°14'0 0.0
2017-Aug-22 06:59N 25°47' W 080°14'0 0.0
2017-Aug-22 06:29N 25°47' W 080°14'0 0.0
2017-Aug-22 05:59N 25°47' W 080°14'0 0.0
2017-Aug-22 05:29N 25°47' W 080°14'0 0.0
2017-Aug-22 04:59N 25°47' W 080°14'0 0.0
2017-Aug-22 04:26N 25°47' W 080°14'0 0.0
2017-Aug-22 03:59N 25°47' W 080°14'0 0.0
2017-Aug-22 03:29N 25°47' W 080°14'0 0.0
2017-Aug-22 02:59N 25°47' W 080°14'0 0.0
2017-Aug-22 02:29N 25°47' W 080°14'0 0.0
2017-Aug-22 01:59N 25°47' W 080°14'0 0.0
2017-Aug-22 01:29N 25°47' W 080°14'0 0.0
2017-Aug-22 00:56N 25°47' W 080°14'0 0.0
2017-Aug-22 00:29N 25°47' W 080°14'0 0.0
2017-Aug-21 23:58N 25°47' W 080°14'0 0.0
2017-Aug-21 23:28N 25°47' W 080°14'0 0.0
2017-Aug-21 22:58N 25°47' W 080°14'0 0.0
2017-Aug-21 22:28N 25°47' W 080°14'0 0.0
2017-Aug-21 21:58N 25°47' W 080°14'0 0.0
2017-Aug-21 21:28N 25°47' W 080°14'0 0.0
2017-Aug-21 20:58N 25°47' W 080°14'0 0.0
2017-Aug-21 20:28N 25°47' W 080°14'0 0.0
2017-Aug-21 19:58N 25°47' W 080°14'0 0.0
2017-Aug-21 19:28N 25°47' W 080°14'0 0.0
2017-Aug-21 18:58N 25°47' W 080°14'0 0.0
2017-Aug-21 18:28N 25°47' W 080°14'0 0.0
2017-Aug-21 17:58N 25°47' W 080°14'  

Dump ship's entire track history